sensor_id;sensor_type;location;lat;lon;timestamp;temperature;humidity
7290;DHT22;63176;52.678;13.250;2023-09-18T00:01:39;18.50;99.90
7290;DHT22;63176;52.678;13.250;2023-09-18T00:04:05;18.50;99.90
7290;DHT22;63176;52.678;13.250;2023-09-18T00:06:32;18.50;99.90
7290;DHT22;63176;52.678;13.250;2023-09-18T00:08:57;18.50;99.90
7290;DHT22;63176;52.678;13.250;2023-09-18T00:11:23;18.50;99.90
7290;DHT22;63176;52.678;13.250;2023-09-18T00:13:49;18.50;99.90
7290;DHT22;63176;52.678;13.250;2023-09-18T00:16:14;18.50;99.90
7290;DHT22;63176;52.678;13.250;2023-09-18T00:18:40;18.50;99.90
7290;DHT22;63176;52.678;13.250;2023-09-18T00:21:06;18.50;99.90
7290;DHT22;63176;52.678;13.250;2023-09-18T00:23:32;18.50;99.90
7290;DHT22;63176;52.678;13.250;2023-09-18T00:26:00;18.50;99.90
7290;DHT22;63176;52.678;13.250;2023-09-18T00:28:26;18.50;99.90
7290;DHT22;63176;52.678;13.250;2023-09-18T00:30:52;18.40;99.90
7290;DHT22;63176;52.678;13.250;2023-09-18T00:33:18;18.50;99.90
7290;DHT22;63176;52.678;13.250;2023-09-18T00:35:48;18.50;99.90
7290;DHT22;63176;52.678;13.250;2023-09-18T00:38:14;18.50;99.90
7290;DHT22;63176;52.678;13.250;2023-09-18T00:40:40;18.50;99.90
7290;DHT22;63176;52.678;13.250;2023-09-18T00:43:05;18.50;99.90
7290;DHT22;63176;52.678;13.250;2023-09-18T00:45:31;18.50;99.90
7290;DHT22;63176;52.678;13.250;2023-09-18T00:47:56;18.50;99.90
7290;DHT22;63176;52.678;13.250;2023-09-18T00:50:22;18.50;99.90
7290;DHT22;63176;52.678;13.250;2023-09-18T00:52:49;18.50;99.90
7290;DHT22;63176;52.678;13.250;2023-09-18T00:55:15;18.50;99.90
7290;DHT22;63176;52.678;13.250;2023-09-18T00:57:41;18.50;99.90
7290;DHT22;63176;52.678;13.250;2023-09-18T01:00:08;18.50;99.90
7290;DHT22;63176;52.678;13.250;2023-09-18T01:02:34;18.50;99.90
7290;DHT22;63176;52.678;13.250;2023-09-18T01:05:00;18.50;99.90
7290;DHT22;63176;52.678;13.250;2023-09-18T01:07:26;18.50;99.90
7290;DHT22;63176;52.678;13.250;2023-09-18T01:09:53;18.50;99.90
7290;DHT22;63176;52.678;13.250;2023-09-18T01:12:30;18.50;99.90
7290;DHT22;63176;52.678;13.250;2023-09-18T01:17:28;18.40;99.90
7290;DHT22;63176;52.678;13.250;2023-09-18T01:19:54;18.40;99.90
7290;DHT22;63176;52.678;13.250;2023-09-18T01:22:20;18.40;99.90
7290;DHT22;63176;52.678;13.250;2023-09-18T01:24:47;18.30;99.90
7290;DHT22;63176;52.678;13.250;2023-09-18T01:27:15;18.30;99.90
7290;DHT22;63176;52.678;13.250;2023-09-18T01:29:47;18.30;99.90
7290;DHT22;63176;52.678;13.250;2023-09-18T01:32:13;18.20;99.90
7290;DHT22;63176;52.678;13.250;2023-09-18T01:34:49;18.20;99.90
7290;DHT22;63176;52.678;13.250;2023-09-18T01:37:18;18.20;99.90
7290;DHT22;63176;52.678;13.250;2023-09-18T01:39:48;18.20;99.90
7290;DHT22;63176;52.678;13.250;2023-09-18T01:42:14;18.20;99.90
7290;DHT22;63176;52.678;13.250;2023-09-18T01:44:42;18.20;99.90
7290;DHT22;63176;52.678;13.250;2023-09-18T01:47:09;18.10;99.90
7290;DHT22;63176;52.678;13.250;2023-09-18T01:49:38;18.20;99.90
7290;DHT22;63176;52.678;13.250;2023-09-18T01:52:05;18.20;99.90
7290;DHT22;63176;52.678;13.250;2023-09-18T01:54:32;18.20;99.90
7290;DHT22;63176;52.678;13.250;2023-09-18T01:56:57;18.20;99.90
7290;DHT22;63176;52.678;13.250;2023-09-18T01:59:24;18.10;99.90
7290;DHT22;63176;52.678;13.250;2023-09-18T02:01:51;18.10;99.90
7290;DHT22;63176;52.678;13.250;2023-09-18T02:04:17;18.10;99.90
7290;DHT22;63176;52.678;13.250;2023-09-18T02:06:43;18.10;99.90
7290;DHT22;63176;52.678;13.250;2023-09-18T02:09:09;18.10;99.90
7290;DHT22;63176;52.678;13.250;2023-09-18T02:11:37;18.00;99.90
7290;DHT22;63176;52.678;13.250;2023-09-18T02:14:03;18.00;99.90
7290;DHT22;63176;52.678;13.250;2023-09-18T02:16:34;18.00;99.90
7290;DHT22;63176;52.678;13.250;2023-09-18T02:18:59;18.00;99.90
7290;DHT22;63176;52.678;13.250;2023-09-18T02:21:25;18.00;99.90
7290;DHT22;63176;52.678;13.250;2023-09-18T02:23:52;18.00;99.90
7290;DHT22;63176;52.678;13.250;2023-09-18T02:26:19;18.00;99.90
7290;DHT22;63176;52.678;13.250;2023-09-18T02:28:44;18.00;99.90
7290;DHT22;63176;52.678;13.250;2023-09-18T02:31:10;18.00;99.90
7290;DHT22;63176;52.678;13.250;2023-09-18T02:33:37;18.00;99.90
7290;DHT22;63176;52.678;13.250;2023-09-18T02:36:03;18.00;99.90
7290;DHT22;63176;52.678;13.250;2023-09-18T02:38:30;18.00;99.90
7290;DHT22;63176;52.678;13.250;2023-09-18T02:40:56;18.00;99.90
7290;DHT22;63176;52.678;13.250;2023-09-18T02:43:23;18.00;99.90
7290;DHT22;63176;52.678;13.250;2023-09-18T02:45:49;18.00;99.90
7290;DHT22;63176;52.678;13.250;2023-09-18T02:48:15;18.00;99.90
7290;DHT22;63176;52.678;13.250;2023-09-18T02:50:41;18.00;99.90
7290;DHT22;63176;52.678;13.250;2023-09-18T02:53:11;18.00;99.90
7290;DHT22;63176;52.678;13.250;2023-09-18T02:55:37;18.00;99.90
7290;DHT22;63176;52.678;13.250;2023-09-18T02:58:02;18.00;99.90
7290;DHT22;63176;52.678;13.250;2023-09-18T03:00:28;17.90;99.90
7290;DHT22;63176;52.678;13.250;2023-09-18T03:02:54;17.90;99.90
7290;DHT22;63176;52.678;13.250;2023-09-18T03:05:19;17.90;99.90
7290;DHT22;63176;52.678;13.250;2023-09-18T03:07:45;17.90;99.90
7290;DHT22;63176;52.678;13.250;2023-09-18T03:10:13;17.90;99.90
7290;DHT22;63176;52.678;13.250;2023-09-18T03:12:41;17.90;99.90
7290;DHT22;63176;52.678;13.250;2023-09-18T03:15:07;17.90;99.90
7290;DHT22;63176;52.678;13.250;2023-09-18T03:17:32;17.90;99.90
7290;DHT22;63176;52.678;13.250;2023-09-18T03:19:58;17.90;99.90
7290;DHT22;63176;52.678;13.250;2023-09-18T03:22:25;17.90;99.90
7290;DHT22;63176;52.678;13.250;2023-09-18T03:24:51;17.90;99.90
7290;DHT22;63176;52.678;13.250;2023-09-18T03:27:16;17.90;99.90
7290;DHT22;63176;52.678;13.250;2023-09-18T03:29:42;17.90;99.90
7290;DHT22;63176;52.678;13.250;2023-09-18T03:32:07;17.90;99.90
7290;DHT22;63176;52.678;13.250;2023-09-18T03:34:37;17.80;99.90
7290;DHT22;63176;52.678;13.250;2023-09-18T03:37:03;17.80;99.90
7290;DHT22;63176;52.678;13.250;2023-09-18T03:39:29;17.80;99.90
7290;DHT22;63176;52.678;13.250;2023-09-18T03:41:54;17.80;99.90
7290;DHT22;63176;52.678;13.250;2023-09-18T03:44:20;17.80;99.90
7290;DHT22;63176;52.678;13.250;2023-09-18T03:46:46;17.80;99.90
7290;DHT22;63176;52.678;13.250;2023-09-18T03:49:12;17.80;99.90
7290;DHT22;63176;52.678;13.250;2023-09-18T03:51:37;17.80;99.90
7290;DHT22;63176;52.678;13.250;2023-09-18T03:54:03;17.80;99.90
7290;DHT22;63176;52.678;13.250;2023-09-18T03:56:28;17.80;99.90
7290;DHT22;63176;52.678;13.250;2023-09-18T03:58:54;17.80;99.90
7290;DHT22;63176;52.678;13.250;2023-09-18T04:01:20;17.70;99.90
7290;DHT22;63176;52.678;13.250;2023-09-18T04:03:46;17.70;99.90
7290;DHT22;63176;52.678;13.250;2023-09-18T04:06:11;17.70;99.90
7290;DHT22;63176;52.678;13.250;2023-09-18T04:08:37;17.70;99.90
7290;DHT22;63176;52.678;13.250;2023-09-18T04:11:03;17.70;99.90
7290;DHT22;63176;52.678;13.250;2023-09-18T04:13:29;17.60;99.90
7290;DHT22;63176;52.678;13.250;2023-09-18T04:15:55;17.70;99.90
7290;DHT22;63176;52.678;13.250;2023-09-18T04:18:22;17.60;99.90
7290;DHT22;63176;52.678;13.250;2023-09-18T04:20:48;17.60;99.90
7290;DHT22;63176;52.678;13.250;2023-09-18T04:23:25;17.60;99.90
7290;DHT22;63176;52.678;13.250;2023-09-18T04:25:52;17.50;99.90
7290;DHT22;63176;52.678;13.250;2023-09-18T04:28:20;17.50;99.90
7290;DHT22;63176;52.678;13.250;2023-09-18T04:30:46;17.50;99.90
7290;DHT22;63176;52.678;13.250;2023-09-18T04:33:13;17.50;99.90
7290;DHT22;63176;52.678;13.250;2023-09-18T04:35:39;17.50;99.90
7290;DHT22;63176;52.678;13.250;2023-09-18T04:38:08;17.40;99.90
7290;DHT22;63176;52.678;13.250;2023-09-18T04:40:34;17.40;99.90
7290;DHT22;63176;52.678;13.250;2023-09-18T04:43:00;17.50;99.90
7290;DHT22;63176;52.678;13.250;2023-09-18T04:45:26;17.40;99.90
7290;DHT22;63176;52.678;13.250;2023-09-18T04:47:53;17.50;99.90
7290;DHT22;63176;52.678;13.250;2023-09-18T04:50:19;17.40;99.90
7290;DHT22;63176;52.678;13.250;2023-09-18T04:52:44;17.40;99.90
7290;DHT22;63176;52.678;13.250;2023-09-18T04:55:10;17.50;99.90
7290;DHT22;63176;52.678;13.250;2023-09-18T04:57:37;17.50;99.90
7290;DHT22;63176;52.678;13.250;2023-09-18T05:00:03;17.50;99.90
7290;DHT22;63176;52.678;13.250;2023-09-18T05:02:34;17.70;99.90
7290;DHT22;63176;52.678;13.250;2023-09-18T05:05:00;17.50;99.90
7290;DHT22;63176;52.678;13.250;2023-09-18T05:07:26;17.60;99.90
7290;DHT22;63176;52.678;13.250;2023-09-18T05:09:52;17.60;99.90
7290;DHT22;63176;52.678;13.250;2023-09-18T05:12:17;17.60;99.90
7290;DHT22;63176;52.678;13.250;2023-09-18T05:14:43;17.50;99.90
7290;DHT22;63176;52.678;13.250;2023-09-18T05:17:15;17.50;99.90
7290;DHT22;63176;52.678;13.250;2023-09-18T05:19:40;17.50;99.90
7290;DHT22;63176;52.678;13.250;2023-09-18T05:22:07;17.50;99.90
7290;DHT22;63176;52.678;13.250;2023-09-18T05:24:33;17.60;99.90
7290;DHT22;63176;52.678;13.250;2023-09-18T05:26:59;17.60;99.90
7290;DHT22;63176;52.678;13.250;2023-09-18T05:29:24;17.60;99.90
7290;DHT22;63176;52.678;13.250;2023-09-18T05:31:50;17.70;99.90
7290;DHT22;63176;52.678;13.250;2023-09-18T05:34:16;17.70;99.90
7290;DHT22;63176;52.678;13.250;2023-09-18T05:36:41;17.70;99.90
7290;DHT22;63176;52.678;13.250;2023-09-18T05:39:07;17.80;99.90
7290;DHT22;63176;52.678;13.250;2023-09-18T05:41:37;17.80;99.90
7290;DHT22;63176;52.678;13.250;2023-09-18T05:44:02;17.80;99.90
7290;DHT22;63176;52.678;13.250;2023-09-18T05:46:30;17.80;99.90
7290;DHT22;63176;52.678;13.250;2023-09-18T05:48:56;17.90;99.90
7290;DHT22;63176;52.678;13.250;2023-09-18T05:51:23;18.00;99.90
7290;DHT22;63176;52.678;13.250;2023-09-18T05:53:49;18.00;99.90
7290;DHT22;63176;52.678;13.250;2023-09-18T05:56:15;18.00;99.90
7290;DHT22;63176;52.678;13.250;2023-09-18T05:58:42;18.10;99.90
7290;DHT22;63176;52.678;13.250;2023-09-18T06:01:08;18.10;99.90
7290;DHT22;63176;52.678;13.250;2023-09-18T06:03:33;18.20;99.90
7290;DHT22;63176;52.678;13.250;2023-09-18T06:06:02;18.30;99.90
7290;DHT22;63176;52.678;13.250;2023-09-18T06:08:29;18.30;99.90
7290;DHT22;63176;52.678;13.250;2023-09-18T06:10:55;18.30;99.90
7290;DHT22;63176;52.678;13.250;2023-09-18T06:13:21;18.40;99.90
7290;DHT22;63176;52.678;13.250;2023-09-18T06:15:47;18.40;99.90
7290;DHT22;63176;52.678;13.250;2023-09-18T06:18:13;18.40;99.90
7290;DHT22;63176;52.678;13.250;2023-09-18T06:20:39;18.50;99.90
7290;DHT22;63176;52.678;13.250;2023-09-18T06:23:06;18.50;99.90
7290;DHT22;63176;52.678;13.250;2023-09-18T06:25:32;18.60;99.90
7290;DHT22;63176;52.678;13.250;2023-09-18T06:27:57;18.60;99.90
7290;DHT22;63176;52.678;13.250;2023-09-18T06:30:23;18.60;99.90
7290;DHT22;63176;52.678;13.250;2023-09-18T06:32:49;18.70;99.90
7290;DHT22;63176;52.678;13.250;2023-09-18T06:35:15;18.70;99.90
7290;DHT22;63176;52.678;13.250;2023-09-18T06:37:40;18.80;99.90
7290;DHT22;63176;52.678;13.250;2023-09-18T06:40:06;18.80;99.90
7290;DHT22;63176;52.678;13.250;2023-09-18T06:42:32;18.80;99.90
7290;DHT22;63176;52.678;13.250;2023-09-18T06:44:58;18.90;99.90
7290;DHT22;63176;52.678;13.250;2023-09-18T06:47:24;18.90;99.90
7290;DHT22;63176;52.678;13.250;2023-09-18T06:49:50;18.90;99.90
7290;DHT22;63176;52.678;13.250;2023-09-18T06:52:17;18.90;99.90
7290;DHT22;63176;52.678;13.250;2023-09-18T06:54:42;19.00;99.90
7290;DHT22;63176;52.678;13.250;2023-09-18T06:57:09;19.00;99.90
7290;DHT22;63176;52.678;13.250;2023-09-18T06:59:35;19.10;99.90
7290;DHT22;63176;52.678;13.250;2023-09-18T07:02:01;19.10;99.90
7290;DHT22;63176;52.678;13.250;2023-09-18T07:04:27;19.10;99.90
7290;DHT22;63176;52.678;13.250;2023-09-18T07:06:53;19.20;99.90
7290;DHT22;63176;52.678;13.250;2023-09-18T07:09:19;19.20;99.90
7290;DHT22;63176;52.678;13.250;2023-09-18T07:11:45;19.30;99.90
7290;DHT22;63176;52.678;13.250;2023-09-18T07:14:10;19.40;99.90
7290;DHT22;63176;52.678;13.250;2023-09-18T07:16:36;19.50;99.90
7290;DHT22;63176;52.678;13.250;2023-09-18T07:19:02;19.60;99.90
7290;DHT22;63176;52.678;13.250;2023-09-18T07:21:30;19.70;99.90
7290;DHT22;63176;52.678;13.250;2023-09-18T07:23:56;19.80;99.90
7290;DHT22;63176;52.678;13.250;2023-09-18T07:26:21;19.90;99.90
7290;DHT22;63176;52.678;13.250;2023-09-18T07:28:47;20.00;99.90
7290;DHT22;63176;52.678;13.250;2023-09-18T07:31:13;20.10;99.90
7290;DHT22;63176;52.678;13.250;2023-09-18T07:33:40;20.20;99.90
7290;DHT22;63176;52.678;13.250;2023-09-18T07:36:07;20.30;99.90
7290;DHT22;63176;52.678;13.250;2023-09-18T07:38:32;20.40;99.90
7290;DHT22;63176;52.678;13.250;2023-09-18T07:40:58;20.50;99.90
7290;DHT22;63176;52.678;13.250;2023-09-18T07:43:24;20.60;99.90
7290;DHT22;63176;52.678;13.250;2023-09-18T07:45:50;20.70;99.90
7290;DHT22;63176;52.678;13.250;2023-09-18T07:48:16;20.80;99.90
7290;DHT22;63176;52.678;13.250;2023-09-18T07:50:45;20.80;99.90
7290;DHT22;63176;52.678;13.250;2023-09-18T07:53:11;21.00;99.90
7290;DHT22;63176;52.678;13.250;2023-09-18T07:55:36;21.10;99.90
7290;DHT22;63176;52.678;13.250;2023-09-18T07:58:03;21.10;99.90
7290;DHT22;63176;52.678;13.250;2023-09-18T08:00:30;21.20;99.90
7290;DHT22;63176;52.678;13.250;2023-09-18T08:02:58;21.30;99.90
7290;DHT22;63176;52.678;13.250;2023-09-18T08:05:29;21.30;99.90
7290;DHT22;63176;52.678;13.250;2023-09-18T08:07:55;21.40;99.90
7290;DHT22;63176;52.678;13.250;2023-09-18T08:10:22;21.40;99.90
7290;DHT22;63176;52.678;13.250;2023-09-18T08:12:48;21.50;99.90
7290;DHT22;63176;52.678;13.250;2023-09-18T08:15:16;21.60;99.90
7290;DHT22;63176;52.678;13.250;2023-09-18T08:17:42;21.60;99.90
7290;DHT22;63176;52.678;13.250;2023-09-18T08:20:09;21.70;99.90
7290;DHT22;63176;52.678;13.250;2023-09-18T08:22:39;21.80;99.90
7290;DHT22;63176;52.678;13.250;2023-09-18T08:25:06;21.90;99.90
7290;DHT22;63176;52.678;13.250;2023-09-18T08:27:39;22.00;99.90
7290;DHT22;63176;52.678;13.250;2023-09-18T08:30:10;22.20;99.90
7290;DHT22;63176;52.678;13.250;2023-09-18T08:32:37;22.30;99.90
7290;DHT22;63176;52.678;13.250;2023-09-18T08:35:03;22.40;99.90
7290;DHT22;63176;52.678;13.250;2023-09-18T08:37:29;22.60;99.90
7290;DHT22;63176;52.678;13.250;2023-09-18T08:39:56;22.70;99.90
7290;DHT22;63176;52.678;13.250;2023-09-18T08:42:22;22.80;99.90
7290;DHT22;63176;52.678;13.250;2023-09-18T08:44:50;22.90;99.90
7290;DHT22;63176;52.678;13.250;2023-09-18T08:47:18;23.00;99.90
7290;DHT22;63176;52.678;13.250;2023-09-18T08:49:46;23.10;99.90
7290;DHT22;63176;52.678;13.250;2023-09-18T08:52:15;23.20;99.90
7290;DHT22;63176;52.678;13.250;2023-09-18T08:54:43;23.30;99.90
7290;DHT22;63176;52.678;13.250;2023-09-18T08:57:09;23.40;99.90
7290;DHT22;63176;52.678;13.250;2023-09-18T08:59:35;23.50;99.90
7290;DHT22;63176;52.678;13.250;2023-09-18T09:02:03;23.60;99.90
7290;DHT22;63176;52.678;13.250;2023-09-18T09:04:29;23.70;99.90
7290;DHT22;63176;52.678;13.250;2023-09-18T09:06:55;23.80;99.90
7290;DHT22;63176;52.678;13.250;2023-09-18T09:09:25;23.90;99.90
7290;DHT22;63176;52.678;13.250;2023-09-18T09:11:52;24.00;99.90
7290;DHT22;63176;52.678;13.250;2023-09-18T09:14:17;24.00;99.90
7290;DHT22;63176;52.678;13.250;2023-09-18T09:16:48;24.10;99.90
7290;DHT22;63176;52.678;13.250;2023-09-18T09:19:16;24.20;99.90
7290;DHT22;63176;52.678;13.250;2023-09-18T09:21:43;24.20;99.90
7290;DHT22;63176;52.678;13.250;2023-09-18T09:24:13;24.30;99.90
7290;DHT22;63176;52.678;13.250;2023-09-18T09:26:40;24.50;99.90
7290;DHT22;63176;52.678;13.250;2023-09-18T09:29:20;24.50;99.90
7290;DHT22;63176;52.678;13.250;2023-09-18T09:31:46;24.50;99.90
7290;DHT22;63176;52.678;13.250;2023-09-18T09:34:13;24.50;99.90
7290;DHT22;63176;52.678;13.250;2023-09-18T09:36:55;24.40;99.90
7290;DHT22;63176;52.678;13.250;2023-09-18T09:39:22;24.40;99.90
7290;DHT22;63176;52.678;13.250;2023-09-18T09:41:51;24.30;99.90
7290;DHT22;63176;52.678;13.250;2023-09-18T09:44:17;24.30;99.90
7290;DHT22;63176;52.678;13.250;2023-09-18T09:46:50;24.40;99.90
7290;DHT22;63176;52.678;13.250;2023-09-18T09:49:17;24.40;99.90
7290;DHT22;63176;52.678;13.250;2023-09-18T09:51:45;24.50;99.90
7290;DHT22;63176;52.678;13.250;2023-09-18T09:54:11;24.40;99.90
7290;DHT22;63176;52.678;13.250;2023-09-18T09:56:50;24.40;99.90
7290;DHT22;63176;52.678;13.250;2023-09-18T09:59:19;24.30;99.90
7290;DHT22;63176;52.678;13.250;2023-09-18T10:01:49;24.30;99.90
7290;DHT22;63176;52.678;13.250;2023-09-18T10:04:17;24.20;99.90
7290;DHT22;63176;52.678;13.250;2023-09-18T10:06:51;24.30;99.90
7290;DHT22;63176;52.678;13.250;2023-09-18T10:09:19;24.40;99.90
7290;DHT22;63176;52.678;13.250;2023-09-18T10:11:52;24.40;99.90
7290;DHT22;63176;52.678;13.250;2023-09-18T10:14:18;24.50;99.90
7290;DHT22;63176;52.678;13.250;2023-09-18T10:16:54;24.50;99.90
7290;DHT22;63176;52.678;13.250;2023-09-18T10:19:31;24.60;99.90
7290;DHT22;63176;52.678;13.250;2023-09-18T10:22:08;24.70;99.90
7290;DHT22;63176;52.678;13.250;2023-09-18T10:24:37;24.80;99.90
7290;DHT22;63176;52.678;13.250;2023-09-18T10:27:06;24.80;99.90
7290;DHT22;63176;52.678;13.250;2023-09-18T10:29:35;24.90;99.90
7290;DHT22;63176;52.678;13.250;2023-09-18T10:32:05;25.00;99.90
7290;DHT22;63176;52.678;13.250;2023-09-18T10:34:33;25.00;99.90
7290;DHT22;63176;52.678;13.250;2023-09-18T10:37:01;25.00;99.90
7290;DHT22;63176;52.678;13.250;2023-09-18T10:39:37;25.00;99.90
7290;DHT22;63176;52.678;13.250;2023-09-18T10:42:03;25.10;99.90
7290;DHT22;63176;52.678;13.250;2023-09-18T10:44:30;25.10;99.90
7290;DHT22;63176;52.678;13.250;2023-09-18T10:47:01;25.20;99.90
7290;DHT22;63176;52.678;13.250;2023-09-18T10:49:28;25.40;99.90
7290;DHT22;63176;52.678;13.250;2023-09-18T10:51:55;25.50;99.90
7290;DHT22;63176;52.678;13.250;2023-09-18T10:54:23;25.50;99.90
7290;DHT22;63176;52.678;13.250;2023-09-18T10:56:49;25.40;99.90
7290;DHT22;63176;52.678;13.250;2023-09-18T10:59:15;25.30;99.90
7290;DHT22;63176;52.678;13.250;2023-09-18T11:01:42;25.20;99.90
7290;DHT22;63176;52.678;13.250;2023-09-18T11:04:08;25.10;99.90
7290;DHT22;63176;52.678;13.250;2023-09-18T11:17:38;24.60;99.90
7290;DHT22;63176;52.678;13.250;2023-09-18T11:20:16;24.60;99.90
7290;DHT22;63176;52.678;13.250;2023-09-18T11:22:56;24.50;99.90
7290;DHT22;63176;52.678;13.250;2023-09-18T11:25:39;24.40;99.90
7290;DHT22;63176;52.678;13.250;2023-09-18T11:28:25;24.40;99.90
7290;DHT22;63176;52.678;13.250;2023-09-18T11:30:53;24.40;99.90
7290;DHT22;63176;52.678;13.250;2023-09-18T11:33:34;24.40;99.90
7290;DHT22;63176;52.678;13.250;2023-09-18T11:36:08;24.30;99.90
7290;DHT22;63176;52.678;13.250;2023-09-18T11:41:26;24.20;99.90
7290;DHT22;63176;52.678;13.250;2023-09-18T11:46:39;24.10;99.90
7290;DHT22;63176;52.678;13.250;2023-09-18T11:49:08;24.10;99.90
7290;DHT22;63176;52.678;13.250;2023-09-18T11:51:36;24.00;99.90
7290;DHT22;63176;52.678;13.250;2023-09-18T11:54:03;24.00;99.90
7290;DHT22;63176;52.678;13.250;2023-09-18T11:56:32;23.90;99.90
7290;DHT22;63176;52.678;13.250;2023-09-18T11:58:58;23.90;99.90
7290;DHT22;63176;52.678;13.250;2023-09-18T12:01:25;23.80;99.90
7290;DHT22;63176;52.678;13.250;2023-09-18T12:04:00;23.80;99.90
7290;DHT22;63176;52.678;13.250;2023-09-18T12:06:26;23.80;99.90
7290;DHT22;63176;52.678;13.250;2023-09-18T12:08:52;23.80;99.90
7290;DHT22;63176;52.678;13.250;2023-09-18T12:11:18;23.70;99.90
7290;DHT22;63176;52.678;13.250;2023-09-18T12:13:54;23.70;99.90
7290;DHT22;63176;52.678;13.250;2023-09-18T12:16:20;23.70;99.90
7290;DHT22;63176;52.678;13.250;2023-09-18T12:18:49;23.70;99.90
7290;DHT22;63176;52.678;13.250;2023-09-18T12:21:16;23.80;99.90
7290;DHT22;63176;52.678;13.250;2023-09-18T12:23:44;23.90;99.90
7290;DHT22;63176;52.678;13.250;2023-09-18T12:26:14;24.10;99.90
7290;DHT22;63176;52.678;13.250;2023-09-18T12:28:44;24.20;99.90
7290;DHT22;63176;52.678;13.250;2023-09-18T12:31:14;24.40;99.90
7290;DHT22;63176;52.678;13.250;2023-09-18T12:33:40;24.40;99.90
7290;DHT22;63176;52.678;13.250;2023-09-18T12:36:08;24.40;99.90
7290;DHT22;63176;52.678;13.250;2023-09-18T12:38:34;24.30;99.90
7290;DHT22;63176;52.678;13.250;2023-09-18T12:41:03;24.40;99.90
7290;DHT22;63176;52.678;13.250;2023-09-18T12:43:38;24.30;99.90
7290;DHT22;63176;52.678;13.250;2023-09-18T12:46:05;24.20;99.90
7290;DHT22;63176;52.678;13.250;2023-09-18T12:48:32;24.10;99.90
7290;DHT22;63176;52.678;13.250;2023-09-18T12:51:07;24.00;99.90
7290;DHT22;63176;52.678;13.250;2023-09-18T12:53:33;23.90;99.90
7290;DHT22;63176;52.678;13.250;2023-09-18T12:56:12;23.90;99.90
7290;DHT22;63176;52.678;13.250;2023-09-18T12:58:39;23.80;99.90
7290;DHT22;63176;52.678;13.250;2023-09-18T13:01:07;23.80;99.90
7290;DHT22;63176;52.678;13.250;2023-09-18T13:03:34;23.80;99.90
7290;DHT22;63176;52.678;13.250;2023-09-18T13:06:11;23.80;99.90
7290;DHT22;63176;52.678;13.250;2023-09-18T13:08:38;23.70;99.90
7290;DHT22;63176;52.678;13.250;2023-09-18T13:11:04;23.60;99.90
7290;DHT22;63176;52.678;13.250;2023-09-18T13:13:30;23.60;99.90
7290;DHT22;63176;52.678;13.250;2023-09-18T13:15:59;23.50;99.90
7290;DHT22;63176;52.678;13.250;2023-09-18T13:18:26;23.50;99.90
7290;DHT22;63176;52.678;13.250;2023-09-18T13:20:53;23.50;99.90
7290;DHT22;63176;52.678;13.250;2023-09-18T13:23:19;23.50;99.90
7290;DHT22;63176;52.678;13.250;2023-09-18T13:25:45;23.50;99.90
7290;DHT22;63176;52.678;13.250;2023-09-18T13:28:13;23.40;99.90
7290;DHT22;63176;52.678;13.250;2023-09-18T13:30:40;23.40;99.90
7290;DHT22;63176;52.678;13.250;2023-09-18T13:33:08;23.40;99.90
7290;DHT22;63176;52.678;13.250;2023-09-18T13:35:36;23.40;99.90
7290;DHT22;63176;52.678;13.250;2023-09-18T13:38:03;23.40;99.90
7290;DHT22;63176;52.678;13.250;2023-09-18T13:40:40;23.40;99.90
7290;DHT22;63176;52.678;13.250;2023-09-18T13:43:08;23.30;99.90
7290;DHT22;63176;52.678;13.250;2023-09-18T13:45:34;23.30;99.90
7290;DHT22;63176;52.678;13.250;2023-09-18T13:48:01;23.30;99.90
7290;DHT22;63176;52.678;13.250;2023-09-18T13:50:27;23.30;99.90
7290;DHT22;63176;52.678;13.250;2023-09-18T13:52:53;23.30;99.90
7290;DHT22;63176;52.678;13.250;2023-09-18T13:55:19;23.30;99.90
7290;DHT22;63176;52.678;13.250;2023-09-18T13:57:45;23.30;99.90
7290;DHT22;63176;52.678;13.250;2023-09-18T14:00:11;23.30;99.90
7290;DHT22;63176;52.678;13.250;2023-09-18T14:02:40;23.30;99.90
7290;DHT22;63176;52.678;13.250;2023-09-18T14:05:06;23.30;99.90
7290;DHT22;63176;52.678;13.250;2023-09-18T14:07:32;23.30;99.90
7290;DHT22;63176;52.678;13.250;2023-09-18T14:09:58;23.30;99.90
7290;DHT22;63176;52.678;13.250;2023-09-18T14:12:24;23.30;99.90
7290;DHT22;63176;52.678;13.250;2023-09-18T14:14:50;23.40;99.90
7290;DHT22;63176;52.678;13.250;2023-09-18T14:17:16;23.40;99.90
7290;DHT22;63176;52.678;13.250;2023-09-18T14:19:43;23.40;99.90
7290;DHT22;63176;52.678;13.250;2023-09-18T14:22:10;23.30;99.90
7290;DHT22;63176;52.678;13.250;2023-09-18T14:24:36;23.30;99.90
7290;DHT22;63176;52.678;13.250;2023-09-18T14:27:03;23.30;99.90
7290;DHT22;63176;52.678;13.250;2023-09-18T14:29:29;23.30;99.90
7290;DHT22;63176;52.678;13.250;2023-09-18T14:31:59;23.30;99.90
7290;DHT22;63176;52.678;13.250;2023-09-18T14:34:25;23.30;99.90
7290;DHT22;63176;52.678;13.250;2023-09-18T14:36:51;23.40;99.90
7290;DHT22;63176;52.678;13.250;2023-09-18T14:39:16;23.40;99.90
7290;DHT22;63176;52.678;13.250;2023-09-18T14:41:42;23.50;99.90
7290;DHT22;63176;52.678;13.250;2023-09-18T14:44:09;23.50;99.90
7290;DHT22;63176;52.678;13.250;2023-09-18T14:46:35;23.60;99.90
7290;DHT22;63176;52.678;13.250;2023-09-18T14:49:03;23.60;99.90
7290;DHT22;63176;52.678;13.250;2023-09-18T14:51:29;23.70;99.90
7290;DHT22;63176;52.678;13.250;2023-09-18T14:53:55;23.60;99.90
7290;DHT22;63176;52.678;13.250;2023-09-18T14:56:21;23.60;99.90
7290;DHT22;63176;52.678;13.250;2023-09-18T14:58:47;23.60;99.90
7290;DHT22;63176;52.678;13.250;2023-09-18T15:01:12;23.60;99.90
7290;DHT22;63176;52.678;13.250;2023-09-18T15:03:40;23.50;99.90
7290;DHT22;63176;52.678;13.250;2023-09-18T15:06:06;23.50;99.90
7290;DHT22;63176;52.678;13.250;2023-09-18T15:08:33;23.40;99.90
7290;DHT22;63176;52.678;13.250;2023-09-18T15:10:59;23.40;99.90
7290;DHT22;63176;52.678;13.250;2023-09-18T15:13:25;23.40;99.90
7290;DHT22;63176;52.678;13.250;2023-09-18T15:15:51;23.40;99.90
7290;DHT22;63176;52.678;13.250;2023-09-18T15:18:16;23.30;99.90
7290;DHT22;63176;52.678;13.250;2023-09-18T15:20:42;23.40;99.90
7290;DHT22;63176;52.678;13.250;2023-09-18T15:23:08;23.30;99.90
7290;DHT22;63176;52.678;13.250;2023-09-18T15:25:35;23.30;99.90
7290;DHT22;63176;52.678;13.250;2023-09-18T15:28:06;23.30;99.90
7290;DHT22;63176;52.678;13.250;2023-09-18T15:30:33;23.30;99.90
7290;DHT22;63176;52.678;13.250;2023-09-18T15:32:59;23.20;99.90
7290;DHT22;63176;52.678;13.250;2023-09-18T15:35:26;23.20;99.90
7290;DHT22;63176;52.678;13.250;2023-09-18T15:37:53;23.10;99.90
7290;DHT22;63176;52.678;13.250;2023-09-18T15:40:20;23.10;99.90
7290;DHT22;63176;52.678;13.250;2023-09-18T15:42:49;23.10;99.90
7290;DHT22;63176;52.678;13.250;2023-09-18T15:45:15;23.00;99.90
7290;DHT22;63176;52.678;13.250;2023-09-18T15:47:41;23.00;99.90
7290;DHT22;63176;52.678;13.250;2023-09-18T15:50:11;23.00;99.90